AirNav   Free Bose QuietComfort 20
 
 940 users online  

54FL Teco Plaza Heliport
Tampa, Florida, USA

GOING TO TAMPA?


FAA INFORMATION EFFECTIVE 05 DECEMBER 2019

Location

FAA Identifier: 54FL
Lat/Long: 27-57-01.4300N 082-27-33.8300W
27-57.023833N 082-27.563833W
27.9503972,-82.4593972
(estimated)
Elevation: 150 ft. / 46 m (estimated)
Variation: 02W (1985)
Time zone: UTC -5 (UTC -4 during Daylight Saving Time)
Zip code: 33602

Heliport Operations

Heliport use: Private use. Permission required prior to landing
Activation date: 02/1982
Control tower: no
ARTCC: MIAMI CENTER
FSS: SAINT PETERSBURG FLIGHT SERVICE STATION
Attendance: MON-FRI 0900-1700
Wind indicator: yes
Segmented circle: no

Heliport Communications

WX AWOS-3 at TPF (2.2 nm S): 118.925 (813-251-6824)
WX ASOS at TPA (4 nm W): PHONE 813-873-7228
WX AWOS-3 at VDF (7 nm NE): 121.125 (813-630-0924)
WX ASOS at PIE (12 nm W): PHONE 727-531-3456
WX ASOS at SPG (14 nm SW): 118.875 (727-821-4334)
WX AWOS-3P at CLW (16 nm W): 119.225 (727-449-2184)
WX AWOS-3 at PCM (16 nm E): 120.025 (813-764-8259)

Nearby radio navigation aids

VOR radial/distance  VOR name  Freq  Var
PIEr083/12.2ST PETERSBURG VORTAC116.4005W
LALr264/23.7LAKELAND VORTAC116.0001E
SRQr015/33.1SARASOTA VOR/DME117.0005W

 
NDB name  Hdg/Dist  Freq  Var  ID
COSME162/8.836805WTP - .--.
CAPOK107/13.236005WPI .--. ..

Heliport Services

Runway Information

Helipad H1

Dimensions: 60 x 60 ft. / 18 x 18 m
Surface: concrete
Latitude: 27-57.023833N
Longitude: 082-27.563833W
Elevation: 150.0 ft.
Traffic pattern: leftleft

Heliport Ownership and Management from official FAA records

Ownership: Privately-owned
Owner: 7978 ASSOCIATES II, LLC.
P0 BOX 111
TAMPA, FL 33601
Phone (813) 228-1174
Manager: JOE RAMANO
PO BOX 111
TAMPA, FL 33601
Phone (813) 228-1649

Additional Remarks

FOR CD CTC TAMPA APCH AT 813-878-2528

Instrument Procedures

There are no published instrument procedures at 54FL.

Some nearby airports with instrument procedures:

KTPF - Peter O Knight Airport (2 nm S)
KTPA - Tampa International Airport (4 nm W)
KMCF - MacDill Air Force Base (7 nm SW)
KVDF - Tampa Executive Airport (7 nm NE)
KPIE - St Pete-Clearwater International Airport (12 nm W)
KSPG - Albert Whitted Airport (14 nm SW)
KCLW - Clearwater Air Park (16 nm W)
KPCM - Plant City Airport (16 nm E)
 
Loc | Ops | Rwys | IFR | FBO | Links
Com | Nav | Svcs | Stats | Notes


 
Area around 54FL (Teco Plaza Heliport)
 
Road maps at: MapQuest Bing Google
 
Aerial photo
No photo
 
Sectional chart

 
Airport distance calculator
Flying to Teco Plaza Heliport? Find the distance to fly.

From to 54FL

Sunrise and sunset
Times for 12-Dec-2019
 Local
(UTC-5)
 Zulu
(UTC)
Morning civil twilight06:4711:47
Sunrise07:1312:13
Sunset17:3422:34
Evening civil twilight18:0023:00

Current date and time
Zulu (UTC)  12-Dec-2019 23:42:21
Local (UTC-5)  12-Dec-2019 18:42:21
 
METAR
KTPF 
2nm S 
122315Z AUTO 08010KT 10SM OVC015 22/21 A3015 RMK AO2
KTPA 
4nm W 
122253Z 06010G16KT 10SM -DZ BKN015 BKN075 OVC100 22/19 A3015 RMK AO2 DZB46 SLP210 CIG 012V018 P0000 T02220189
KMCF 
7nm SW 
122316Z AUTO 09012KT 10SM BKN018 BKN024 22/19 A3014 RMK AO2 SLP209 FZRANO $
KVDF 
7nm NE 
122315Z AUTO 06007KT 10SM SCT011 BKN016 OVC110 21/20 A3016 RMK AO2
KPIE 
12nm W 
122253Z 07010KT 10SM SCT017 BKN070 OVC095 23/19 A3014 RMK AO2 RAB19E29 SLP207 P0000 T02280194
KSPG 
14nm SW 
122253Z 05011KT 10SM BKN023 OVC095 22/19 A3013 RMK AO2 SLP203 T02170194
KPCM 
16nm E 
122315Z AUTO 07008KT 7SM BKN012 OVC018 22/21 A3018 RMK AO2
KCLW 
16nm W 
122315Z AUTO 08007KT 10SM SCT016 BKN090 21/19 A3015 RMK AO2
TAF
KTPA 
4nm W 
122107Z 1221/1324 08008G15KT P6SM VCSH SCT015 SCT025 OVC040 FM130000 09005KT P6SM BKN025 OVC100 FM131500 17008KT P6SM VCSH OVC100
KMCF 
7nm SW 
121700Z 1217/1323 08012G18KT 9999 BKN020 BKN200 QNH3021INS BECMG 1303/1304 09009KT 9999 BKN008 QNH3005INS BECMG 1307/1308 10009KT 9999 SCT008 BKN050 QNH3002INS TX26/1218Z TN19/1311Z
KPIE 
12nm W 
122112Z 1221/1318 08009G15KT P6SM VCSH SCT015 SCT020 OVC100 FM130000 07007KT P6SM BKN025 OVC100 FM131500 17009KT P6SM VCSH OVC100
NOTAMs
Click for the latest NOTAMs
NOTAMs are issued by the DoD/FAA and will open in a separate window not controlled by AirNav.

 

 
 

Would you like to see your business listed on this page?

 If your business provides an interesting product or service to pilots, flight crews, aircraft, or users of the Teco Plaza Heliport, you should consider listing it here.  To start the listing process, click on the button below
 
Add a business
 

Other Pages about Teco Plaza Heliport

Update a link
 
Copyright © AirNav, LLC. All rights reserved. Privacy Policy  Contact